createdAt,value
2022-08-10T00:00:54.935Z,8.00
2022-08-10T00:03:01.338Z,8.07
2022-08-10T00:05:06.610Z,8.27
2022-08-10T00:07:21.272Z,7.90
2022-08-10T00:09:24.855Z,8.17
2022-08-10T00:11:28.771Z,7.90
2022-08-10T00:13:32.628Z,7.57
2022-08-10T00:15:52.816Z,7.70
2022-08-10T00:17:41.698Z,8.10
2022-08-10T00:20:03.851Z,8.20
2022-08-10T00:21:50.885Z,7.43
2022-08-10T00:23:54.505Z,7.40
2022-08-10T00:25:58.131Z,8.23
2022-08-10T00:28:04.118Z,7.60
2022-08-10T00:30:08.965Z,7.10
2022-08-10T00:32:12.695Z,6.83
2022-08-10T00:34:16.305Z,8.17
2022-08-10T00:38:36.495Z,6.93
2022-08-10T00:40:40.213Z,7.10
2022-08-10T00:42:43.876Z,7.50
2022-08-10T00:44:49.492Z,6.80
2022-08-10T00:46:53.232Z,7.07
2022-08-10T00:49:00.426Z,6.70
2022-08-10T00:53:17.760Z,6.60
2022-08-10T00:55:21.785Z,7.80
2022-08-10T00:57:26.375Z,7.00
2022-08-10T00:59:31.812Z,7.90
2022-08-10T01:02:08.758Z,6.97
2022-08-10T01:04:40.070Z,7.30
2022-08-10T01:05:51.255Z,7.20
2022-08-10T01:10:36.616Z,6.50
2022-08-10T01:12:44.201Z,9.37
2022-08-10T01:14:52.344Z,7.73
2022-08-10T01:19:17.720Z,7.63
2022-08-10T01:21:56.816Z,8.10
2022-08-10T01:24:40.486Z,8.27
2022-08-10T01:27:09.732Z,8.37
2022-08-10T01:29:36.032Z,8.77
2022-08-10T01:31:42.570Z,7.90
2022-08-10T01:33:58.341Z,8.10
2022-08-10T01:38:14.488Z,8.17
2022-08-10T01:40:22.893Z,8.07
2022-08-10T01:42:29.714Z,7.60
2022-08-10T01:44:37.272Z,8.00
2022-08-10T01:46:44.375Z,8.80
2022-08-10T01:48:50.838Z,8.03
2022-08-10T01:53:16.511Z,8.70
2022-08-10T01:55:21.310Z,7.80
2022-08-10T01:57:27.686Z,8.93
2022-08-10T01:59:34.441Z,8.20
2022-08-10T02:04:04.381Z,7.93
2022-08-10T02:06:04.854Z,8.23
2022-08-10T02:08:11.364Z,8.47
2022-08-10T02:10:18.621Z,9.00
2022-08-10T02:12:24.387Z,9.23
2022-08-10T02:14:32.947Z,8.63
2022-08-10T02:16:38.030Z,8.13
2022-08-10T02:18:42.830Z,9.83
2022-08-10T02:20:49.022Z,9.37
2022-08-10T02:22:55.700Z,8.27
2022-08-10T02:25:01.979Z,8.80
2022-08-10T02:29:23.620Z,8.77
2022-08-10T02:31:28.370Z,9.60
2022-08-10T02:33:38.068Z,8.37
2022-08-10T02:35:55.400Z,8.90
2022-08-10T02:37:51.325Z,10.50
2022-08-10T02:39:55.125Z,9.40
2022-08-10T02:42:17.890Z,8.80
2022-08-10T02:45:19.342Z,9.50
2022-08-10T02:46:21.340Z,10.00
2022-08-10T02:48:32.115Z,10.33
2022-08-10T02:50:38.501Z,11.77
2022-08-10T02:52:45.635Z,9.40
2022-08-10T02:54:53.493Z,9.40
2022-08-10T02:57:00.956Z,8.77
2022-08-10T03:01:29.569Z,10.73
2022-08-10T03:03:37.876Z,9.57
2022-08-10T03:05:42.955Z,10.57
2022-08-10T03:07:50.770Z,8.70
2022-08-10T03:09:55.502Z,9.47
2022-08-10T03:12:36.790Z,9.53
2022-08-10T03:16:25.127Z,9.20
2022-08-10T03:18:31.905Z,10.10
2022-08-10T03:20:39.950Z,12.17
2022-08-10T03:22:46.433Z,10.67
2022-08-10T03:24:52.261Z,12.30
2022-08-10T03:26:57.219Z,11.00
2022-08-10T03:31:18.760Z,10.03
2022-08-10T03:33:25.338Z,11.87
2022-08-10T03:35:30.028Z,12.63
2022-08-10T03:37:33.747Z,11.77
2022-08-10T03:39:37.418Z,12.93
2022-08-10T03:41:47.830Z,10.57
2022-08-10T03:43:51.366Z,10.57
2022-08-10T03:48:13.361Z,13.17
2022-08-10T03:50:27.976Z,9.53
2022-08-10T03:52:30.196Z,11.50
2022-08-10T03:54:51.503Z,10.53
2022-08-10T03:56:59.081Z,14.70
2022-08-10T03:59:05.002Z,13.03
2022-08-10T04:03:30.392Z,12.90
2022-08-10T04:05:38.817Z,12.70
2022-08-10T04:07:44.005Z,14.17
2022-08-10T04:09:54.872Z,19.40
2022-08-10T04:11:56.382Z,12.80
2022-08-10T04:14:00.559Z,16.87
2022-08-10T04:18:21.001Z,11.03
2022-08-10T04:20:34.468Z,12.13
2022-08-10T04:22:39.744Z,13.00
2022-08-10T04:24:45.430Z,12.57
2022-08-10T04:26:49.628Z,12.17
2022-08-10T04:28:54.077Z,11.00
2022-08-10T04:30:58.763Z,11.40
2022-08-10T04:33:05.470Z,18.53
2022-08-10T04:37:30.983Z,14.87
2022-08-10T04:39:34.874Z,14.03
2022-08-10T04:41:38.656Z,13.40
2022-08-10T04:43:44.007Z,11.77
2022-08-10T04:45:51.750Z,15.00
2022-08-10T04:48:00.098Z,15.40
2022-08-10T04:49:59.048Z,16.83
2022-08-10T04:52:03.312Z,12.17
2022-08-10T04:54:08.220Z,15.37
2022-08-10T04:58:29.845Z,14.20
2022-08-10T05:00:33.877Z,16.30
2022-08-10T05:02:37.453Z,14.17
2022-08-10T05:04:41.008Z,13.03
2022-08-10T05:06:44.519Z,15.40
2022-08-10T05:08:48.121Z,11.60
2022-08-10T05:10:51.760Z,14.57
2022-08-10T05:12:55.353Z,13.80
2022-08-10T05:14:58.847Z,11.57
2022-08-10T05:17:03.013Z,14.93
2022-08-10T05:19:06.787Z,11.37
2022-08-10T05:23:26.115Z,16.70
2022-08-10T05:25:33.017Z,12.07
2022-08-10T05:27:36.637Z,12.07
2022-08-10T05:29:40.225Z,13.00
2022-08-10T05:31:44.062Z,14.90
2022-08-10T05:33:47.664Z,15.80
2022-08-10T05:35:56.483Z,12.43
2022-08-10T05:38:11.543Z,14.50
2022-08-10T05:40:06.755Z,13.20
2022-08-10T05:42:10.618Z,13.90
2022-08-10T05:44:14.545Z,13.93
2022-08-10T05:48:54.101Z,11.80
2022-08-10T05:50:40.386Z,12.40
2022-08-10T05:52:44.029Z,12.03
2022-08-10T05:54:47.982Z,14.13
2022-08-10T05:56:56.843Z,10.43
2022-08-10T05:58:57.203Z,16.97
2022-08-10T06:01:02.417Z,13.00
2022-08-10T06:03:07.885Z,10.27
2022-08-10T06:05:14.390Z,12.13
2022-08-10T06:09:35.500Z,13.93
2022-08-10T06:12:23.310Z,13.80
2022-08-10T06:14:13.749Z,16.90
2022-08-10T06:16:15.832Z,16.13
2022-08-10T06:18:20.024Z,11.93
2022-08-10T06:20:23.977Z,11.20
2022-08-10T06:22:31.671Z,12.33
2022-08-10T06:24:55.928Z,13.67
2022-08-10T06:26:44.996Z,13.43
2022-08-10T06:28:58.975Z,20.23
2022-08-10T06:31:00.177Z,9.60
2022-08-10T06:33:04.584Z,12.90
2022-08-10T06:35:10.789Z,9.50
2022-08-10T06:39:36.165Z,13.13
2022-08-10T06:42:15.083Z,11.33
2022-08-10T06:43:54.851Z,12.07
2022-08-10T06:46:07.933Z,10.23
2022-08-10T06:48:13.000Z,13.00
2022-08-10T06:52:35.188Z,10.63
2022-08-10T06:54:40.578Z,8.27
2022-08-10T06:57:01.789Z,9.53
2022-08-10T06:58:56.013Z,8.17
2022-08-10T07:01:05.001Z,9.80
2022-08-10T07:03:11.543Z,9.10
2022-08-10T07:05:21.654Z,8.40
2022-08-10T07:09:44.532Z,9.20
2022-08-10T07:11:50.366Z,8.47
2022-08-10T07:14:13.990Z,11.33
2022-08-10T07:16:12.648Z,8.53
2022-08-10T07:18:17.031Z,7.73
2022-08-10T07:20:22.420Z,8.27
2022-08-10T07:24:52.567Z,8.40
2022-08-10T07:26:58.396Z,8.87
2022-08-10T07:29:03.888Z,9.07
2022-08-10T07:31:34.854Z,9.33
2022-08-10T07:33:16.557Z,9.67
2022-08-10T07:35:22.937Z,9.90
2022-08-10T07:37:29.068Z,8.93
2022-08-10T07:40:02.189Z,9.30
2022-08-10T07:41:44.283Z,7.13
2022-08-10T07:43:49.627Z,8.73
2022-08-10T07:45:56.558Z,8.33
2022-08-10T07:48:07.431Z,8.10
2022-08-10T07:50:12.288Z,10.10
2022-08-10T07:52:15.945Z,7.60
2022-08-10T07:56:48.956Z,9.20
2022-08-10T07:58:51.506Z,8.50
2022-08-10T08:00:55.072Z,8.23
2022-08-10T08:03:00.911Z,10.57
2022-08-10T08:05:07.989Z,7.53
2022-08-10T08:07:13.518Z,8.23
2022-08-10T08:09:19.255Z,9.90
2022-08-10T08:11:26.254Z,9.23
2022-08-10T08:13:30.497Z,9.93
2022-08-10T08:16:19.734Z,8.70
2022-08-10T08:17:42.079Z,8.53
2022-08-10T08:19:55.667Z,7.53
2022-08-10T08:24:14.599Z,7.97
2022-08-10T08:24:31.991Z,8.23
2022-08-10T08:26:12.411Z,11.73
2022-08-10T08:28:17.924Z,6.83
2022-08-10T08:30:27.029Z,7.97
2022-08-10T08:32:31.160Z,11.73
2022-08-10T08:34:37.922Z,9.07
2022-08-10T08:36:43.007Z,10.17
2022-08-10T08:38:47.275Z,8.87
2022-08-10T08:40:56.297Z,9.33
2022-08-10T08:43:18.278Z,8.53
2022-08-10T08:45:27.338Z,11.93
2022-08-10T08:48:03.714Z,9.10
2022-08-10T08:50:25.707Z,12.43
2022-08-10T08:52:36.660Z,10.03
2022-08-10T08:54:46.795Z,9.27
2022-08-10T08:56:57.036Z,10.77
2022-08-10T08:59:18.494Z,7.87
2022-08-10T09:01:40.282Z,9.93
2022-08-10T09:04:04.410Z,9.80
2022-08-10T09:06:18.488Z,9.27
2022-08-10T09:08:38.712Z,11.60
2022-08-10T09:10:48.758Z,8.10
2022-08-10T09:15:40.010Z,8.03
2022-08-10T09:17:27.029Z,10.10
2022-08-10T09:19:36.983Z,9.40
2022-08-10T09:22:10.752Z,9.43
2022-08-10T09:24:01.654Z,9.00
2022-08-10T09:28:26.484Z,10.80
2022-08-10T09:36:14.637Z,9.37
2022-08-10T09:36:20.692Z,7.87
2022-08-10T09:41:50.963Z,8.70
2022-08-10T09:46:16.499Z,8.70
2022-08-10T09:51:28.022Z,8.53
2022-08-10T09:55:23.136Z,8.70
2022-08-10T10:00:01.787Z,7.97
2022-08-10T10:02:05.959Z,7.43
2022-08-10T10:04:13.943Z,11.00
2022-08-10T10:08:43.306Z,8.17
2022-08-10T10:10:53.229Z,9.47
2022-08-10T10:13:01.271Z,10.13
2022-08-10T10:15:24.303Z,13.23
2022-08-10T10:17:31.491Z,7.83
2022-08-10T10:19:53.631Z,11.23
2022-08-10T10:22:02.459Z,9.83
2022-08-10T10:24:21.126Z,8.37
2022-08-10T10:29:15.418Z,6.17
2022-08-10T10:33:12.367Z,6.63
2022-08-10T10:38:01.356Z,9.30
2022-08-10T10:42:04.333Z,9.13
2022-08-10T10:44:11.370Z,8.70
2022-08-10T10:46:24.320Z,9.40
2022-08-10T10:50:58.812Z,10.47
2022-08-10T10:55:28.078Z,10.40
2022-08-10T10:59:57.693Z,7.97
2022-08-10T11:04:24.993Z,10.13
2022-08-10T11:08:53.992Z,12.50
2022-08-10T11:15:42.681Z,10.53
2022-08-10T11:20:05.923Z,11.20
2022-08-10T11:22:16.488Z,16.57
2022-08-10T11:26:40.532Z,10.73
2022-08-10T11:31:05.681Z,18.07
2022-08-10T11:35:36.375Z,14.53
2022-08-10T11:39:59.968Z,12.20
2022-08-10T11:42:19.139Z,9.63
2022-08-10T11:46:31.828Z,7.87
2022-08-10T11:50:57.673Z,8.90
2022-08-10T11:53:06.708Z,13.50
2022-08-10T11:57:54.539Z,7.57
2022-08-10T12:01:55.542Z,7.60
2022-08-10T12:04:03.436Z,8.57
2022-08-10T12:06:12.866Z,8.57
2022-08-10T12:10:07.218Z,10.83
2022-08-10T12:10:27.253Z,9.53
2022-08-10T12:12:34.612Z,8.20
2022-08-10T12:14:43.592Z,9.83
2022-08-10T12:16:50.031Z,8.73
2022-08-10T12:18:58.436Z,8.70
2022-08-10T12:23:20.283Z,7.63
2022-08-10T12:25:55.875Z,7.33
2022-08-10T12:27:38.159Z,8.00
2022-08-10T12:29:46.685Z,7.43
2022-08-10T12:31:54.594Z,8.80
2022-08-10T12:34:10.776Z,7.83
2022-08-10T12:38:37.160Z,8.63
2022-08-10T12:43:13.210Z,8.70
2022-08-10T12:45:12.722Z,6.87
2022-08-10T12:49:36.870Z,7.97
2022-08-10T12:51:49.473Z,10.67
2022-08-10T12:53:56.207Z,7.63
2022-08-10T12:56:01.400Z,7.57
2022-08-10T12:58:56.784Z,8.73
2022-08-10T13:00:17.316Z,8.63
2022-08-10T13:04:41.811Z,8.33
2022-08-10T13:09:09.174Z,9.37
2022-08-10T13:13:33.535Z,7.67
2022-08-10T13:17:55.077Z,5.20
2022-08-10T13:22:17.660Z,5.67
2022-08-10T13:27:22.772Z,5.23
2022-08-10T13:28:50.817Z,5.30
2022-08-10T13:30:55.632Z,5.90
2022-08-10T13:33:01.578Z,5.97
2022-08-10T13:35:09.324Z,4.80
2022-08-10T13:39:57.815Z,6.47
2022-08-10T13:44:01.392Z,6.20
2022-08-10T13:48:22.271Z,8.97
2022-08-10T13:52:47.884Z,6.87
2022-08-10T13:54:53.293Z,6.90
2022-08-10T13:56:57.843Z,7.43
2022-08-10T14:01:20.468Z,6.80
2022-08-10T14:03:25.840Z,7.30
2022-08-10T14:05:33.466Z,7.20
2022-08-10T14:07:45.166Z,7.97
2022-08-10T14:09:48.342Z,7.30
2022-08-10T14:11:52.628Z,7.30
2022-08-10T14:13:59.399Z,8.63
2022-08-10T14:18:22.432Z,7.97
2022-08-10T14:22:43.677Z,7.90
2022-08-10T14:24:48.384Z,7.07
2022-08-10T14:26:58.519Z,5.40
2022-08-10T14:29:06.424Z,5.97
2022-08-10T14:33:24.861Z,6.07
2022-08-10T14:37:48.655Z,6.83
2022-08-10T14:42:25.209Z,6.30
2022-08-10T14:46:39.565Z,6.63
2022-08-10T14:48:47.033Z,6.90
2022-08-10T14:50:55.711Z,6.50
2022-08-10T14:53:02.473Z,5.90
2022-08-10T14:55:19.667Z,6.03
2022-08-10T15:00:24.627Z,6.20
2022-08-10T15:02:00.563Z,6.60
2022-08-10T15:04:02.574Z,6.87
2022-08-10T15:05:54.338Z,6.90
2022-08-10T15:07:59.927Z,6.77
2022-08-10T15:10:06.453Z,7.20
2022-08-10T15:12:13.901Z,6.13
2022-08-10T15:16:33.831Z,6.23
2022-08-10T15:20:59.454Z,5.87
2022-08-10T15:23:06.062Z,5.77
2022-08-10T15:25:19.353Z,6.10
2022-08-10T15:29:35.136Z,6.13
2022-08-10T15:34:36.436Z,6.60
2022-08-10T15:41:20.281Z,6.00
2022-08-10T15:45:45.843Z,5.50
2022-08-10T15:47:55.255Z,5.80
2022-08-10T15:52:39.899Z,6.37
2022-08-10T15:56:44.313Z,5.40
2022-08-10T15:58:52.747Z,5.60
2022-08-10T16:03:19.164Z,6.27
2022-08-10T16:06:00.642Z,5.63
2022-08-10T16:07:46.028Z,5.80
2022-08-10T16:12:03.390Z,6.90
2022-08-10T16:14:10.697Z,6.53
2022-08-10T16:18:34.398Z,7.23
2022-08-10T16:20:53.046Z,6.07
2022-08-10T16:22:48.272Z,6.13
2022-08-10T16:24:54.167Z,7.13
2022-08-10T16:27:01.757Z,6.83
2022-08-10T16:29:08.832Z,9.60
2022-08-10T16:31:17.296Z,21.20
2022-08-10T16:33:23.744Z,40.00
2022-08-10T16:35:30.044Z,19.00
2022-08-10T16:40:00.358Z,7.07
2022-08-10T16:42:06.018Z,7.03
2022-08-10T16:44:13.264Z,6.33
2022-08-10T16:46:19.293Z,9.63
2022-08-10T16:48:49.823Z,15.40
2022-08-10T16:50:32.175Z,11.60
2022-08-10T16:52:36.659Z,11.13
2022-08-10T16:57:01.947Z,10.77
2022-08-10T16:59:06.493Z,6.30
2022-08-10T17:01:12.740Z,7.90
2022-08-10T17:04:04.579Z,10.93
2022-08-10T17:06:09.770Z,8.10
2022-08-10T17:07:34.186Z,15.87
2022-08-10T17:11:57.707Z,10.13
2022-08-10T17:14:02.790Z,7.50
2022-08-10T17:16:09.615Z,10.00
2022-08-10T17:18:17.932Z,6.30
2022-08-10T17:20:30.577Z,6.27
2022-08-10T17:24:50.770Z,8.40
2022-08-10T17:26:57.741Z,7.63
2022-08-10T17:29:04.403Z,6.43
2022-08-10T17:31:23.926Z,6.10
2022-08-10T17:33:19.369Z,5.47
2022-08-10T17:35:25.476Z,5.70
2022-08-10T17:37:32.796Z,8.20
2022-08-10T17:41:56.359Z,7.00
2022-08-10T17:44:03.443Z,10.50
2022-08-10T17:46:07.787Z,5.83
2022-08-10T17:48:11.888Z,6.00
2022-08-10T17:50:17.571Z,7.57
2022-08-10T17:52:23.646Z,7.77
2022-08-10T17:54:30.067Z,6.83
2022-08-10T17:58:53.157Z,6.07
2022-08-10T18:01:40.586Z,9.23
2022-08-10T18:03:06.347Z,7.47
2022-08-10T18:05:12.481Z,7.30
2022-08-10T18:07:16.942Z,7.83
2022-08-10T18:11:47.523Z,7.67
2022-08-10T18:13:55.671Z,6.97
2022-08-10T18:16:01.238Z,6.93
2022-08-10T18:18:07.089Z,8.17
2022-08-10T18:20:12.630Z,7.70
2022-08-10T18:24:35.447Z,6.53
2022-08-10T18:26:41.066Z,8.07
2022-08-10T18:28:45.917Z,7.60
2022-08-10T18:30:53.673Z,8.20
2022-08-10T18:32:58.919Z,8.53
2022-08-10T18:35:05.784Z,8.13
2022-08-10T18:37:15.801Z,6.97
2022-08-10T18:42:00.424Z,7.13
2022-08-10T18:44:05.976Z,8.03
2022-08-10T18:45:57.130Z,6.80
2022-08-10T18:48:04.192Z,6.67
2022-08-10T18:50:13.351Z,7.40
2022-08-10T18:52:19.317Z,8.87
2022-08-10T18:54:39.309Z,9.27
2022-08-10T18:56:48.258Z,7.67
2022-08-10T18:59:02.885Z,10.57
2022-08-10T19:01:20.542Z,7.43
2022-08-10T19:03:47.359Z,8.70
2022-08-10T19:06:17.969Z,7.93
2022-08-10T19:08:49.206Z,10.20
2022-08-10T19:10:54.825Z,8.43
2022-08-10T19:13:03.101Z,7.87
2022-08-10T19:15:16.349Z,7.83
2022-08-10T19:17:24.661Z,6.20
2022-08-10T19:19:35.068Z,6.40
2022-08-10T19:24:01.562Z,7.23
2022-08-10T19:28:25.468Z,7.37
2022-08-10T19:30:34.137Z,7.67
2022-08-10T19:32:44.137Z,7.03
2022-08-10T19:35:02.510Z,6.30
2022-08-10T19:37:10.836Z,7.73
2022-08-10T19:39:20.193Z,7.17
2022-08-10T19:41:32.145Z,7.67
2022-08-10T19:44:00.047Z,6.40
2022-08-10T19:48:11.752Z,8.83
2022-08-10T19:50:19.004Z,8.23
2022-08-10T19:52:27.282Z,7.33
2022-08-10T19:54:36.172Z,7.20
2022-08-10T19:59:10.347Z,7.00
2022-08-10T20:01:15.607Z,7.10
2022-08-10T20:03:23.276Z,12.63
2022-08-10T20:05:31.885Z,7.33
2022-08-10T20:07:39.424Z,7.93
2022-08-10T20:09:47.143Z,7.10
2022-08-10T20:11:54.595Z,8.60
2022-08-10T20:14:02.927Z,7.20
2022-08-10T20:16:11.693Z,6.83
2022-08-10T20:18:22.088Z,8.30
2022-08-10T20:20:31.821Z,7.23
2022-08-10T20:22:39.633Z,6.83
2022-08-10T20:27:30.959Z,8.27
2022-08-10T20:29:16.246Z,7.53
2022-08-10T20:31:24.110Z,7.30
2022-08-10T20:33:31.748Z,7.50
2022-08-10T20:35:42.192Z,7.60
2022-08-10T20:40:11.052Z,6.87
2022-08-10T20:42:21.300Z,6.87
2022-08-10T20:44:33.639Z,9.23
2022-08-10T20:49:00.823Z,7.20
2022-08-10T20:51:08.083Z,6.83
2022-08-10T20:53:14.799Z,6.83
2022-08-10T20:55:20.733Z,7.57
2022-08-10T20:57:54.445Z,7.50
2022-08-10T21:00:04.900Z,10.30
2022-08-10T21:02:23.235Z,8.20
2022-08-10T21:04:33.667Z,7.27
2022-08-10T21:07:06.194Z,6.97
2022-08-10T21:12:21.326Z,7.30
2022-08-10T21:14:35.044Z,7.50
2022-08-10T21:16:48.265Z,7.73
2022-08-10T21:21:41.828Z,7.87
2022-08-10T21:23:43.400Z,7.80
2022-08-10T21:28:38.264Z,9.40
2022-08-10T21:31:00.894Z,8.80
2022-08-10T21:33:08.527Z,9.23
2022-08-10T21:35:36.481Z,11.37
2022-08-10T21:37:39.639Z,10.10
2022-08-10T21:39:44.000Z,9.37
2022-08-10T21:42:14.944Z,8.27
2022-08-10T21:44:39.469Z,7.27
2022-08-10T21:47:04.836Z,9.27
2022-08-10T21:49:37.076Z,8.57
2022-08-10T21:52:03.792Z,8.13
2022-08-10T21:56:46.528Z,7.80
2022-08-10T22:01:39.018Z,8.03
2022-08-10T22:03:58.101Z,8.40
2022-08-10T22:06:20.963Z,8.47
2022-08-10T22:08:46.537Z,8.40
2022-08-10T22:13:28.639Z,8.10
2022-08-10T22:16:09.964Z,8.47
2022-08-10T22:18:31.345Z,7.97
2022-08-10T22:20:44.772Z,7.67
2022-08-10T22:25:38.360Z,7.37
2022-08-10T22:28:02.085Z,7.80
2022-08-10T22:30:25.379Z,8.40
2022-08-10T22:35:31.635Z,8.40
2022-08-10T22:40:24.539Z,8.43
2022-08-10T22:42:58.443Z,8.73
2022-08-10T22:45:17.266Z,14.23
2022-08-10T22:47:42.747Z,8.53
2022-08-10T22:49:51.495Z,8.70
2022-08-10T22:52:01.677Z,8.23
2022-08-10T22:54:33.707Z,8.53
2022-08-10T22:56:57.421Z,7.90
2022-08-10T22:59:02.670Z,8.30
2022-08-10T23:01:11.161Z,9.33
2022-08-10T23:05:37.243Z,8.90
2022-08-10T23:07:48.359Z,10.83
2022-08-10T23:10:00.489Z,9.47
2022-08-10T23:12:09.381Z,8.47
2022-08-10T23:14:14.933Z,9.10
2022-08-10T23:16:42.274Z,13.63
2022-08-10T23:19:07.832Z,7.87
2022-08-10T23:21:14.389Z,7.77
2022-08-10T23:25:57.504Z,9.20
2022-08-10T23:27:51.562Z,8.30
2022-08-10T23:30:09.708Z,7.70
2022-08-10T23:32:08.588Z,8.70
2022-08-10T23:34:14.003Z,8.07
2022-08-10T23:36:34.750Z,9.43
2022-08-10T23:40:46.571Z,7.90
2022-08-10T23:42:52.485Z,7.67
2022-08-10T23:47:19.926Z,8.20
2022-08-10T23:51:56.497Z,8.17
2022-08-10T23:53:52.441Z,7.07
2022-08-10T23:56:03.388Z,7.07
2022-08-10T23:58:09.837Z,6.93
